Time;durP1;ratioP1;P1;durP2;ratioP2;P2;SDS_P1;SDS_P2;PMS_P1;PMS_P2;Temp;Humidity;BMP_temperature;BMP_pressure;BME280_temperature;BME280_humidity;BME280_pressure;Samples;Min_cycle;Max_cycle;Signal;HPM_P1;HPM_P2
2024/02/14 00:01:59;;;;;;;23.87;22.57;;;8.40;99.90;;;;;;5051184;28;20519;-67
2024/02/14 00:04:26;;;;;;;25.70;24.03;;;8.40;99.90;;;;;;5051605;28;20454;-67
2024/02/14 00:06:53;;;;;;;22.87;21.57;;;8.40;99.90;;;;;;5051798;28;20915;-67
2024/02/14 00:09:20;;;;;;;17.97;16.90;;;8.50;99.90;;;;;;5051901;28;20541;-68
2024/02/14 00:11:46;;;;;;;14.27;12.87;;;8.50;99.90;;;;;;5051486;28;20454;-67
2024/02/14 00:14:15;;;;;;;21.03;19.90;;;8.60;99.90;;;;;;5051667;28;20482;-67
2024/02/14 00:16:42;;;;;;;31.43;29.33;;;8.60;99.90;;;;;;5051598;28;20459;-68
2024/02/14 00:19:09;;;;;;;32.40;29.63;;;8.50;99.90;;;;;;5051409;28;20965;-67
2024/02/14 00:21:36;;;;;;;30.67;28.37;;;8.50;99.90;;;;;;5050841;28;20486;-67
2024/02/14 00:24:03;;;;;;;39.97;37.77;;;8.50;99.90;;;;;;5051408;28;20478;-67
2024/02/14 00:26:30;;;;;;;40.47;38.37;;;8.50;99.90;;;;;;5051509;28;20455;-68
2024/02/14 00:28:56;;;;;;;33.83;32.17;;;8.50;99.90;;;;;;5051560;28;20836;-68
2024/02/14 00:31:25;;;;;;;39.63;37.90;;;8.50;99.90;;;;;;5051339;28;20923;-68
2024/02/14 00:33:51;;;;;;;31.67;29.97;;;8.50;99.90;;;;;;5051219;28;20566;-68
2024/02/14 00:36:18;;;;;;;54.63;52.07;;;8.50;99.90;;;;;;5052114;28;20448;-68
2024/02/14 00:38:45;;;;;;;60.57;58.10;;;8.50;99.90;;;;;;5055330;28;20879;-68
2024/02/14 00:41:12;;;;;;;35.40;33.60;;;8.50;99.90;;;;;;5054963;28;20879;-67
2024/02/14 00:43:39;;;;;;;27.47;25.97;;;8.50;99.90;;;;;;5055249;28;21008;-67
2024/02/14 00:46:05;;;;;;;38.47;36.47;;;8.70;99.90;;;;;;5054970;28;20450;-67
2024/02/14 00:48:35;;;;;;;57.70;54.83;;;8.60;99.90;;;;;;5055042;28;20462;-67
2024/02/14 00:51:02;;;;;;;53.30;51.07;;;8.60;99.90;;;;;;5055175;28;20469;-67
2024/02/14 00:53:29;;;;;;;79.50;76.20;;;8.60;99.90;;;;;;5054733;28;20853;-67
2024/02/14 00:55:56;;;;;;;65.47;62.87;;;8.60;99.90;;;;;;5054855;28;20455;-67
2024/02/14 00:58:22;;;;;;;68.83;66.20;;;8.60;99.90;;;;;;5055089;28;20447;-67
2024/02/14 01:00:49;;;;;;;57.37;55.23;;;8.60;99.90;;;;;;5054870;28;20489;-67
2024/02/14 01:03:16;;;;;;;81.53;78.53;;;8.60;99.90;;;;;;5054308;28;20481;-67
2024/02/14 01:05:45;;;;;;;78.30;75.30;;;8.70;99.90;;;;;;5054880;28;20454;-67
2024/02/14 01:08:12;;;;;;;107.40;103.53;;;8.70;99.90;;;;;;5054862;28;20455;-67
2024/02/14 01:10:39;;;;;;;173.77;168.00;;;8.70;99.90;;;;;;5054426;28;20992;-68
2024/02/14 01:13:06;;;;;;;165.53;160.10;;;8.60;99.90;;;;;;5054229;28;20467;-66
2024/02/14 01:15:33;;;;;;;176.33;170.77;;;8.70;99.90;;;;;;5054898;28;20554;-67
2024/02/14 01:18:00;;;;;;;136.57;131.83;;;8.70;99.90;;;;;;5054887;28;20462;-67
2024/02/14 01:20:27;;;;;;;171.03;165.53;;;8.80;99.90;;;;;;5054549;28;20846;-68
2024/02/14 01:22:55;;;;;;;242.60;235.07;;;8.80;99.90;;;;;;5054045;28;20511;-67
2024/02/14 01:25:22;;;;;;;264.60;256.03;;;8.90;99.90;;;;;;5054435;28;20459;-67
2024/02/14 01:27:49;;;;;;;219.10;212.33;;;9.10;99.90;;;;;;5054229;28;20458;-67
2024/02/14 01:30:16;;;;;;;244.90;237.13;;;9.20;99.90;;;;;;5054183;28;20505;-67
2024/02/14 01:32:43;;;;;;;170.53;164.93;;;9.30;99.90;;;;;;5053890;28;20478;-67
2024/02/14 01:35:10;;;;;;;146.47;141.67;;;9.40;99.90;;;;;;5054425;28;20455;-67
2024/02/14 01:37:37;;;;;;;130.70;126.23;;;9.50;99.90;;;;;;5054171;28;20822;-67
2024/02/14 01:40:07;;;;;;;84.47;81.43;;;9.50;99.90;;;;;;5054157;28;20459;-67
2024/02/14 01:42:34;;;;;;;99.47;95.97;;;9.60;99.90;;;;;;5053722;28;21048;-67
2024/02/14 01:45:02;;;;;;;73.17;70.37;;;9.60;99.90;;;;;;5046099;28;20447;-67
2024/02/14 01:47:32;;;;;;;87.30;84.13;;;9.70;99.90;;;;;;5054084;28;20447;-66
2024/02/14 01:49:59;;;;;;;82.70;79.43;;;9.70;99.90;;;;;;5054004;28;20446;-67
2024/02/14 01:52:26;;;;;;;78.63;75.90;;;9.60;99.90;;;;;;5053499;28;20463;-66
2024/02/14 01:54:54;;;;;;;84.70;81.70;;;9.60;99.90;;;;;;5053539;28;20447;-67
2024/02/14 01:57:24;;;;;;;88.43;85.37;;;9.60;99.90;;;;;;5053700;28;20454;-67
2024/02/14 01:59:54;;;;;;;107.00;103.40;;;9.60;99.90;;;;;;5053618;28;20992;-67
2024/02/14 02:02:21;;;;;;;88.60;85.33;;;9.60;99.90;;;;;;5053504;28;20913;-67
2024/02/14 02:04:48;;;;;;;73.47;70.77;;;9.60;99.90;;;;;;5053617;28;20458;-66
2024/02/14 02:07:15;;;;;;;73.27;70.67;;;9.70;99.90;;;;;;5053366;28;20455;-66
2024/02/14 02:09:41;;;;;;;66.43;64.00;;;9.70;99.90;;;;;;5053459;28;20455;-67
2024/02/14 02:12:08;;;;;;;62.93;60.63;;;9.90;99.90;;;;;;5053109;28;20977;-66
2024/02/14 02:14:37;;;;;;;57.83;55.60;;;9.70;99.90;;;;;;5053412;28;20459;-67
2024/02/14 02:17:07;;;;;;;54.07;51.97;;;9.80;99.90;;;;;;5054047;28;20455;-67
2024/02/14 02:19:34;;;;;;;60.33;57.93;;;9.80;99.90;;;;;;5053507;28;20455;-67
2024/02/14 02:22:01;;;;;;;58.37;55.87;;;9.80;99.90;;;;;;5052817;28;20481;-66
2024/02/14 02:24:29;;;;;;;56.70;54.50;;;9.80;99.90;;;;;;5053510;28;20981;-67
2024/02/14 02:26:56;;;;;;;52.30;50.20;;;9.80;99.90;;;;;;5054843;28;20489;-67
2024/02/14 02:29:23;;;;;;;60.17;57.87;;;9.80;99.90;;;;;;5053522;28;20455;-66
2024/02/14 02:31:50;;;;;;;58.40;56.20;;;9.80;99.90;;;;;;5052792;28;20452;-67
2024/02/14 02:34:17;;;;;;;62.30;59.80;;;9.80;99.90;;;;;;5052910;28;20478;-67
2024/02/14 02:36:45;;;;;;;62.00;59.50;;;9.80;99.90;;;;;;5052923;28;20451;-67
2024/02/14 02:39:13;;;;;;;70.40;67.70;;;9.80;99.90;;;;;;5053134;28;20856;-67
2024/02/14 02:41:41;;;;;;;65.37;62.70;;;9.80;99.90;;;;;;5052742;28;20479;-67
2024/02/14 02:44:08;;;;;;;66.97;64.37;;;9.80;99.90;;;;;;5052730;28;20550;-67
2024/02/14 02:46:35;;;;;;;61.87;59.47;;;9.80;99.90;;;;;;5053072;28;20462;-67
2024/02/14 02:49:01;;;;;;;66.10;63.50;;;10.00;99.90;;;;;;5045276;28;20481;-67
2024/02/14 02:51:29;;;;;;;71.33;68.53;;;9.80;99.90;;;;;;5052798;28;20456;-67
2024/02/14 02:53:57;;;;;;;71.00;68.10;;;9.80;99.90;;;;;;5054542;28;20478;-66
2024/02/14 02:56:27;;;;;;;80.83;77.63;;;9.80;99.90;;;;;;5054636;28;20540;-67
2024/02/14 02:58:55;;;;;;;93.13;89.33;;;9.80;99.90;;;;;;5054283;28;20978;-67
2024/02/14 03:01:23;;;;;;;103.37;99.47;;;9.80;99.90;;;;;;5056704;28;20482;-66
2024/02/14 03:03:50;;;;;;;109.20;105.53;;;9.80;99.90;;;;;;5055666;28;20497;-66
2024/02/14 03:06:17;;;;;;;113.67;109.67;;;9.80;99.90;;;;;;5056066;28;20455;-67
2024/02/14 03:08:44;;;;;;;119.03;115.00;;;9.80;99.90;;;;;;5053362;28;20451;-67
2024/02/14 03:11:10;;;;;;;124.20;120.07;;;9.80;99.90;;;;;;5052301;28;20455;-66
2024/02/14 03:13:40;;;;;;;122.93;118.83;;;9.80;99.90;;;;;;5052093;28;20477;-65
2024/02/14 03:16:08;;;;;;;123.17;118.97;;;9.80;99.90;;;;;;5052146;28;20973;-66
2024/02/14 03:18:35;;;;;;;126.27;122.07;;;9.80;99.90;;;;;;5052246;28;20955;-66
2024/02/14 03:21:02;;;;;;;130.87;126.47;;;9.80;99.90;;;;;;5052264;28;20948;-67
2024/02/14 03:23:29;;;;;;;172.20;166.53;;;9.80;99.90;;;;;;5051757;28;20483;-67
2024/02/14 03:25:55;;;;;;;188.40;182.30;;;9.70;99.90;;;;;;5052173;28;20466;-67
2024/02/14 03:28:22;;;;;;;228.87;221.40;;;9.70;99.90;;;;;;5052064;28;20962;-67
2024/02/14 03:30:49;;;;;;;237.63;229.87;;;9.70;99.90;;;;;;5051733;28;20836;-67
2024/02/14 03:33:17;;;;;;;271.03;262.27;;;9.60;99.90;;;;;;5051676;28;21011;-67
2024/02/14 03:35:45;;;;;;;256.17;247.97;;;9.60;99.90;;;;;;5052007;28;20451;-67
2024/02/14 03:38:11;;;;;;;259.63;251.23;;;9.60;99.90;;;;;;5052148;28;20541;-67
2024/02/14 03:40:38;;;;;;;269.33;260.23;;;9.60;99.90;;;;;;5051965;28;20452;-67
2024/02/14 03:43:05;;;;;;;300.63;290.53;;;9.50;99.90;;;;;;5051100;28;20997;-66
2024/02/14 03:45:32;;;;;;;326.30;315.23;;;9.50;99.90;;;;;;5051886;28;20512;-67
2024/02/14 03:47:59;;;;;;;321.03;309.13;;;9.50;99.90;;;;;;5052061;28;20469;-67
2024/02/14 03:50:27;;;;;;;334.60;323.10;;;9.70;99.90;;;;;;5052076;28;20455;-67
2024/02/14 03:52:55;;;;;;;361.63;348.73;;;9.60;99.90;;;;;;5051529;28;20467;-67
2024/02/14 03:55:23;;;;;;;359.80;347.03;;;9.60;99.90;;;;;;5051848;28;20456;-66
2024/02/14 03:57:50;;;;;;;351.87;339.50;;;9.60;99.90;;;;;;5051457;28;20950;-66
2024/02/14 04:00:18;;;;;;;356.93;344.47;;;9.60;99.90;;;;;;5051714;28;20568;-67
2024/02/14 04:02:45;;;;;;;385.97;371.97;;;9.50;99.90;;;;;;5051314;28;20495;-67
2024/02/14 04:05:11;;;;;;;396.03;381.27;;;9.50;99.90;;;;;;5052332;28;20455;-67
2024/02/14 04:07:40;;;;;;;431.83;415.37;;;9.40;99.90;;;;;;5051629;28;20546;-67
2024/02/14 04:10:08;;;;;;;445.00;427.67;;;9.30;99.90;;;;;;5051528;28;20529;-66
2024/02/14 04:12:35;;;;;;;436.80;419.63;;;9.30;99.90;;;;;;5053621;28;20478;-67
2024/02/14 04:15:02;;;;;;;463.30;444.70;;;9.20;99.90;;;;;;5055900;28;20455;-66
2024/02/14 04:17:29;;;;;;;498.27;476.87;;;9.20;99.90;;;;;;5055876;28;20538;-66
2024/02/14 04:19:56;;;;;;;488.70;468.03;;;9.20;99.90;;;;;;5055672;28;21180;-67
2024/02/14 04:22:23;;;;;;;507.87;485.77;;;9.20;99.90;;;;;;5055023;28;20487;-67
2024/02/14 04:24:51;;;;;;;504.97;482.50;;;9.20;99.90;;;;;;5055310;28;20460;-67
2024/02/14 04:27:18;;;;;;;508.13;484.90;;;9.20;99.90;;;;;;5055671;28;20513;-67
2024/02/14 04:29:47;;;;;;;509.47;486.37;;;9.20;99.90;;;;;;5053975;28;20447;-67
2024/02/14 04:32:14;;;;;;;505.57;483.13;;;9.20;99.90;;;;;;5054855;28;20968;-67
2024/02/14 04:34:41;;;;;;;500.73;477.43;;;9.20;99.90;;;;;;5055417;28;20451;-67
2024/02/14 04:37:12;;;;;;;492.87;470.70;;;9.40;99.90;;;;;;5055242;28;20840;-66
2024/02/14 04:40:11;;;;;;;493.20;471.17;;;9.20;99.90;;;;;;5055257;28;20525;-67
2024/02/14 04:42:37;;;;;;;504.73;482.30;;;9.30;99.90;;;;;;5053818;28;20490;-67
2024/02/14 04:45:05;;;;;;;499.90;477.97;;;9.30;99.90;;;;;;5055343;28;20454;-67
2024/02/14 04:47:31;;;;;;;487.93;466.87;;;9.40;99.90;;;;;;5054858;28;20835;-67
2024/02/14 04:49:59;;;;;;;477.10;456.90;;;9.50;99.90;;;;;;5055478;28;20458;-66
2024/02/14 04:52:26;;;;;;;469.00;449.60;;;9.50;99.90;;;;;;5054539;28;20498;-66
2024/02/14 04:54:53;;;;;;;440.70;422.97;;;9.60;99.90;;;;;;5054668;28;20481;-67
2024/02/14 04:57:21;;;;;;;433.97;416.80;;;9.60;99.90;;;;;;5055013;28;20481;-67
2024/02/14 04:59:48;;;;;;;413.83;397.60;;;9.70;99.90;;;;;;5054764;28;20463;-67
2024/02/14 05:02:15;;;;;;;411.77;395.80;;;9.70;99.90;;;;;;5054199;28;20493;-67
2024/02/14 05:04:42;;;;;;;386.57;371.70;;;9.70;99.90;;;;;;5054769;28;20451;-67
2024/02/14 05:07:09;;;;;;;383.10;367.90;;;9.70;99.90;;;;;;5054822;28;20451;-66
2024/02/14 05:09:35;;;;;;;396.10;380.57;;;9.80;99.90;;;;;;5054676;28;20459;-65
2024/02/14 05:12:03;;;;;;;428.67;411.40;;;9.90;99.90;;;;;;5054641;28;20923;-67
2024/02/14 05:14:31;;;;;;;484.50;463.63;;;9.80;99.90;;;;;;5055098;28;20459;-67
2024/02/14 05:17:01;;;;;;;494.07;470.97;;;9.80;99.90;;;;;;5054503;28;20458;-67
2024/02/14 05:19:28;;;;;;;513.33;485.63;;;9.70;99.90;;;;;;5054531;28;20461;-68
2024/02/14 05:21:55;;;;;;;514.90;483.60;;;9.60;99.90;;;;;;5053626;28;21222;-67
2024/02/14 05:24:22;;;;;;;509.90;477.50;;;9.50;99.90;;;;;;5054437;28;20458;-67
2024/02/14 05:26:49;;;;;;;499.23;468.23;;;9.50;99.90;;;;;;5054350;28;20542;-67
2024/02/14 05:29:18;;;;;;;509.23;476.67;;;9.40;99.90;;;;;;5054379;28;20455;-68
2024/02/14 05:31:48;;;;;;;515.20;480.10;;;9.40;99.90;;;;;;5054255;28;20454;-68
2024/02/14 05:34:15;;;;;;;509.07;474.37;;;9.40;99.90;;;;;;5053956;28;20490;-67
2024/02/14 05:36:42;;;;;;;507.57;473.97;;;9.40;99.90;;;;;;5054001;28;20830;-67
2024/02/14 05:39:09;;;;;;;507.37;474.70;;;9.40;99.90;;;;;;5054368;28;20459;-68
2024/02/14 05:41:36;;;;;;;511.90;479.50;;;9.40;99.90;;;;;;5054258;28;20457;-67
2024/02/14 05:44:03;;;;;;;512.60;481.87;;;9.40;99.90;;;;;;5054497;28;20482;-67
2024/02/14 05:46:30;;;;;;;509.90;479.10;;;9.40;99.90;;;;;;5054111;28;20466;-67
2024/02/14 05:48:58;;;;;;;510.03;477.93;;;9.40;99.90;;;;;;5053797;28;20451;-67
2024/02/14 05:51:25;;;;;;;510.97;478.57;;;9.40;99.90;;;;;;5053490;28;20513;-67
2024/02/14 05:53:51;;;;;;;516.33;483.87;;;9.40;99.90;;;;;;5053776;28;20467;-67
2024/02/14 05:56:18;;;;;;;511.90;480.13;;;9.40;99.90;;;;;;5054042;28;20455;-67
2024/02/14 05:58:45;;;;;;;505.23;473.03;;;9.40;99.90;;;;;;5053941;28;20458;-67
2024/02/14 06:01:12;;;;;;;495.73;464.03;;;9.40;99.90;;;;;;5053543;28;20542;-66
2024/02/14 06:03:38;;;;;;;501.43;468.33;;;9.40;99.90;;;;;;5052956;28;20487;-67
2024/02/14 06:06:07;;;;;;;499.93;468.17;;;9.40;99.90;;;;;;5052372;28;20459;-67
2024/02/14 06:08:34;;;;;;;505.23;472.70;;;9.50;99.90;;;;;;5053335;28;20455;-67
2024/02/14 06:11:00;;;;;;;495.33;462.90;;;9.50;99.90;;;;;;5053152;28;20462;-67
2024/02/14 06:13:27;;;;;;;491.33;459.60;;;9.50;99.90;;;;;;5053142;28;20479;-67
2024/02/14 06:15:54;;;;;;;499.13;467.97;;;9.60;99.90;;;;;;5053576;28;20839;-67
2024/02/14 06:18:21;;;;;;;504.30;473.80;;;9.60;99.90;;;;;;5053418;28;20516;-67
2024/02/14 06:20:48;;;;;;;504.60;474.07;;;9.60;99.90;;;;;;5053076;28;20456;-67
2024/02/14 06:23:16;;;;;;;498.27;469.17;;;9.60;99.90;;;;;;5052580;28;20487;-67
2024/02/14 06:25:42;;;;;;;493.80;466.03;;;9.60;99.90;;;;;;5052458;28;20466;-67
2024/02/14 06:28:10;;;;;;;494.47;466.57;;;9.60;99.90;;;;;;5053187;28;20458;-67
2024/02/14 06:30:36;;;;;;;488.70;462.03;;;9.60;99.90;;;;;;5053066;28;20455;-67
2024/02/14 06:33:03;;;;;;;483.90;457.90;;;9.60;99.90;;;;;;5052206;28;20490;-67
2024/02/14 06:35:30;;;;;;;477.13;451.00;;;9.60;99.90;;;;;;5052175;28;20462;-67
2024/02/14 06:37:57;;;;;;;483.27;457.03;;;9.60;99.90;;;;;;5052823;28;20458;-67
2024/02/14 06:40:27;;;;;;;481.10;455.20;;;9.60;99.90;;;;;;5052918;28;20981;-66
2024/02/14 06:42:54;;;;;;;488.10;462.40;;;9.60;99.90;;;;;;5052763;28;20482;-67
2024/02/14 06:45:21;;;;;;;489.30;463.90;;;9.60;99.90;;;;;;5053016;28;20451;-67
2024/02/14 06:47:48;;;;;;;487.90;462.77;;;9.70;99.90;;;;;;5053083;28;20455;-67
2024/02/14 06:50:15;;;;;;;482.10;457.80;;;9.70;99.90;;;;;;5052786;28;20458;-67
2024/02/14 06:52:41;;;;;;;480.80;457.10;;;9.70;99.90;;;;;;5052046;28;20471;-67
2024/02/14 06:55:09;;;;;;;476.70;453.80;;;9.70;99.90;;;;;;5052926;28;20451;-67
2024/02/14 06:57:37;;;;;;;481.83;458.67;;;9.70;99.90;;;;;;5052441;28;20982;-66
2024/02/14 07:00:06;;;;;;;485.37;461.80;;;9.70;99.90;;;;;;5052513;28;20465;-67
2024/02/14 07:02:33;;;;;;;486.53;463.20;;;9.70;99.90;;;;;;5052971;28;20542;-67
2024/02/14 07:05:00;;;;;;;489.90;466.10;;;9.80;99.90;;;;;;5053600;28;20542;-67
2024/02/14 07:07:27;;;;;;;488.87;465.47;;;9.90;99.90;;;;;;5054012;28;20451;-67
2024/02/14 07:09:54;;;;;;;471.47;449.30;;;9.90;99.90;;;;;;5053455;28;20512;-67
2024/02/14 07:12:21;;;;;;;471.30;449.77;;;9.90;99.90;;;;;;5051810;28;20471;-68
2024/02/14 07:14:48;;;;;;;461.37;440.87;;;9.90;99.90;;;;;;5052415;28;20455;-67
2024/02/14 07:17:15;;;;;;;453.87;434.17;;;10.00;99.90;;;;;;5052206;28;20470;-67
2024/02/14 07:19:43;;;;;;;438.30;419.83;;;10.00;99.90;;;;;;5052090;28;20455;-67
2024/02/14 07:22:10;;;;;;;434.50;416.60;;;10.00;99.90;;;;;;5052029;28;20616;-67
2024/02/14 07:24:37;;;;;;;417.27;399.97;;;10.10;99.90;;;;;;5052431;28;20538;-67
2024/02/14 07:27:04;;;;;;;399.53;383.50;;;10.10;99.90;;;;;;5050590;28;20453;-67
2024/02/14 07:29:31;;;;;;;380.63;365.63;;;10.10;99.90;;;;;;5051691;28;20451;-67
2024/02/14 07:32:02;;;;;;;374.50;359.80;;;10.20;99.90;;;;;;5050977;28;20455;-66
2024/02/14 07:34:29;;;;;;;369.03;354.73;;;10.20;99.90;;;;;;5052052;28;20455;-67
2024/02/14 07:36:56;;;;;;;358.70;344.50;;;10.30;99.90;;;;;;5051617;28;20734;-67
2024/02/14 07:39:23;;;;;;;347.13;333.77;;;10.30;99.90;;;;;;5051373;28;20451;-67
2024/02/14 07:41:49;;;;;;;339.47;326.67;;;10.30;99.90;;;;;;5051534;28;20477;-67
2024/02/14 07:44:16;;;;;;;339.67;326.90;;;10.40;99.90;;;;;;5051280;28;20784;-67
2024/02/14 07:46:43;;;;;;;338.97;325.67;;;10.60;99.90;;;;;;5051292;28;20455;-67
2024/02/14 07:49:11;;;;;;;328.80;316.87;;;10.50;99.90;;;;;;5051246;28;20451;-67
2024/02/14 07:51:38;;;;;;;296.83;286.23;;;10.60;99.90;;;;;;5050989;28;20474;-67
2024/02/14 07:54:06;;;;;;;289.90;279.07;;;10.70;99.90;;;;;;5051284;28;20857;-67
2024/02/14 07:56:33;;;;;;;275.07;265.57;;;10.80;99.90;;;;;;5051729;28;20456;-67
2024/02/14 07:59:00;;;;;;;255.60;247.00;;;10.80;99.90;;;;;;5050685;28;20483;-67
2024/02/14 08:01:28;;;;;;;233.27;225.47;;;10.80;99.90;;;;;;5051451;28;20457;-67
2024/02/14 08:03:54;;;;;;;209.10;201.80;;;10.90;99.90;;;;;;5051672;28;20858;-67
2024/02/14 08:06:23;;;;;;;190.40;183.90;;;10.90;99.90;;;;;;5051842;28;21134;-67
2024/02/14 08:08:52;;;;;;;169.00;163.30;;;10.90;99.90;;;;;;5051737;28;20451;-69
2024/02/14 08:11:19;;;;;;;164.53;158.50;;;11.00;99.90;;;;;;5051574;28;20540;-69
2024/02/14 08:13:45;;;;;;;150.60;145.40;;;11.00;99.90;;;;;;5051375;28;21123;-67
2024/02/14 08:16:12;;;;;;;143.80;138.77;;;11.10;99.90;;;;;;5051504;28;20455;-67
2024/02/14 08:18:40;;;;;;;131.73;127.33;;;11.20;99.90;;;;;;5051777;28;20447;-68
2024/02/14 08:21:07;;;;;;;116.27;112.07;;;11.30;99.90;;;;;;5051755;28;20475;-68
2024/02/14 08:23:35;;;;;;;103.17;99.40;;;11.40;99.90;;;;;;5059106;28;20863;-67
2024/02/14 08:26:10;;;;;;;86.97;83.83;;;11.50;99.90;;;;;;5043482;28;20513;-67
2024/02/14 08:28:36;;;;;;;73.63;70.67;;;11.50;99.90;;;;;;5055372;28;20807;-67
2024/02/14 08:31:03;;;;;;;70.20;67.30;;;11.60;99.90;;;;;;5051643;28;20451;-67
2024/02/14 08:33:30;;;;;;;63.17;60.17;;;11.60;99.90;;;;;;5051421;28;20620;-68
2024/02/14 08:35:57;;;;;;;74.87;71.77;;;11.70;99.90;;;;;;5051707;28;20469;-67
2024/02/14 08:38:24;;;;;;;72.87;70.03;;;11.80;99.90;;;;;;5051420;28;20483;-67
2024/02/14 08:40:52;;;;;;;70.77;68.00;;;11.90;99.90;;;;;;5051151;28;20451;-67
2024/02/14 08:43:19;;;;;;;48.03;45.70;;;12.10;99.90;;;;;;5051143;28;20490;-68
2024/02/14 08:45:45;;;;;;;30.07;27.70;;;12.10;99.90;;;;;;5051362;28;20451;-67
2024/02/14 08:48:12;;;;;;;20.30;18.80;;;12.20;99.90;;;;;;5051378;28;20451;-68
2024/02/14 08:50:39;;;;;;;19.67;18.47;;;12.20;99.90;;;;;;5051275;28;20547;-68
2024/02/14 08:53:06;;;;;;;14.07;13.07;;;12.30;99.90;;;;;;5050849;28;20498;-67
2024/02/14 08:55:34;;;;;;;12.20;11.20;;;12.40;99.90;;;;;;5051194;28;20455;-68
2024/02/14 08:58:02;;;;;;;10.30;9.50;;;12.50;99.90;;;;;;5044660;28;20538;-68
2024/02/14 09:00:30;;;;;;;7.87;7.17;;;12.50;99.90;;;;;;5051252;28;20451;-69
2024/02/14 09:02:59;;;;;;;7.53;6.83;;;12.50;99.90;;;;;;5054714;28;20854;-68
2024/02/14 09:05:27;;;;;;;10.40;5.30;;;12.60;99.90;;;;;;5054859;28;20455;-69
2024/02/14 09:07:53;;;;;;;8.37;6.00;;;12.70;99.90;;;;;;5054484;28;20451;-69
2024/02/14 09:10:21;;;;;;;8.27;4.90;;;13.00;99.90;;;;;;5054480;28;20455;-68
2024/02/14 09:12:48;;;;;;;10.53;4.57;;;13.10;99.90;;;;;;5054202;28;20477;-68
2024/02/14 09:15:16;;;;;;;5.83;4.10;;;13.40;99.90;;;;;;5049042;28;20907;-68
2024/02/14 09:17:43;;;;;;;6.70;3.63;;;13.60;99.90;;;;;;5044891;28;20536;-68
2024/02/14 09:20:13;;;;;;;10.67;4.10;;;13.80;99.90;;;;;;5051062;28;20934;-69
2024/02/14 09:22:41;;;;;;;8.20;3.47;;;13.70;99.90;;;;;;5039829;28;21011;-68
2024/02/14 09:25:09;;;;;;;8.85;4.00;;;14.00;99.90;;;;;;5050454;28;20458;-68
2024/02/14 09:27:36;;;;;;;7.47;2.53;;;14.20;99.90;;;;;;5054292;28;20208;-67
2024/02/14 09:30:04;;;;;;;6.10;2.30;;;13.90;99.90;;;;;;5053889;28;20513;-67
2024/02/14 09:32:32;;;;;;;8.70;2.63;;;13.80;99.90;;;;;;5053950;28;21006;-67
2024/02/14 09:35:00;;;;;;;5.97;2.70;;;13.70;99.90;;;;;;5054090;28;20451;-67
2024/02/14 09:37:28;;;;;;;6.03;3.50;;;13.70;99.90;;;;;;5054142;28;20457;-68
2024/02/14 09:39:54;;;;;;;6.10;2.30;;;13.70;99.90;;;;;;5054218;28;20462;-67
2024/02/14 09:42:29;;;;;;;6.20;2.60;;;13.70;99.90;;;;;;5053804;28;20482;-67
2024/02/14 09:45:00;;;;;;;6.20;2.30;;;13.80;99.90;;;;;;5053913;28;20497;-68
2024/02/14 09:47:33;;;;;;;6.63;2.50;;;13.80;99.90;;;;;;5053974;28;20455;-68
2024/02/14 09:50:03;;;;;;;4.60;1.90;;;13.90;99.90;;;;;;5054120;28;20517;-67
2024/02/14 09:52:33;;;;;;;9.07;2.77;;;13.70;99.90;;;;;;5053498;28;20475;-68
2024/02/14 09:55:00;;;;;;;5.07;2.10;;;13.60;99.90;;;;;;5053809;28;20534;-68
2024/02/14 09:57:28;;;;;;;15.83;2.53;;;13.40;99.90;;;;;;5053847;28;20516;-67
2024/02/14 09:59:57;;;;;;;8.30;2.40;;;13.50;99.90;;;;;;5053540;28;20473;-67
2024/02/14 10:02:23;;;;;;;5.20;2.47;;;13.30;99.90;;;;;;5053470;28;20481;-67
2024/02/14 10:04:52;;;;;;;7.20;2.33;;;13.30;99.90;;;;;;5053645;28;20487;-67
2024/02/14 10:07:19;;;;;;;8.17;3.00;;;13.20;99.90;;;;;;5053701;28;20509;-68
2024/02/14 10:09:46;;;;;;;6.80;2.90;;;13.20;99.90;;;;;;5053633;28;20451;-67
2024/02/14 10:12:13;;;;;;;6.57;2.87;;;13.10;99.90;;;;;;5053152;28;20447;-67
2024/02/14 10:14:40;;;;;;;6.63;3.13;;;13.20;99.90;;;;;;5053203;28;20451;-68
2024/02/14 10:17:07;;;;;;;6.80;3.00;;;13.10;99.90;;;;;;5053583;28;20485;-67
2024/02/14 10:19:34;;;;;;;5.13;2.60;;;13.10;99.90;;;;;;5053533;28;20546;-67
2024/02/14 10:22:05;;;;;;;8.60;3.20;;;13.20;99.90;;;;;;5052956;28;20462;-67
2024/02/14 10:24:32;;;;;;;6.27;2.73;;;13.30;99.90;;;;;;5053543;28;20506;-67
2024/02/14 10:27:00;;;;;;;5.97;2.80;;;13.50;99.90;;;;;;5053084;28;20833;-67
2024/02/14 10:29:27;;;;;;;5.10;2.50;;;13.60;99.90;;;;;;5053714;28;20453;-67
2024/02/14 10:31:54;;;;;;;10.00;3.57;;;13.70;99.90;;;;;;5052844;28;20983;-67
2024/02/14 10:34:25;;;;;;;5.17;2.60;;;13.70;99.90;;;;;;5053316;28;20473;-67
2024/02/14 10:36:54;;;;;;;6.03;2.40;;;13.50;99.90;;;;;;5053280;28;20842;-67
2024/02/14 10:39:26;;;;;;;5.67;2.57;;;13.60;99.90;;;;;;5053253;28;20466;-68
2024/02/14 10:41:53;;;;;;;6.93;2.50;;;13.70;99.90;;;;;;5052843;28;20851;-67
2024/02/14 10:44:20;;;;;;;7.50;2.47;;;13.70;99.90;;;;;;5053482;28;20486;-67
2024/02/14 10:46:50;;;;;;;7.00;3.40;;;13.60;99.90;;;;;;5052812;28;20461;-67
2024/02/14 10:49:17;;;;;;;5.97;4.93;;;13.60;99.90;;;;;;5052996;28;20873;-67
2024/02/14 10:51:48;;;;;;;7.63;6.93;;;13.20;99.90;;;;;;5052471;28;20957;-67
2024/02/14 10:54:17;;;;;;;9.00;8.30;;;13.20;99.90;;;;;;5052384;28;20517;-67
2024/02/14 10:56:51;;;;;;;13.33;12.10;;;13.20;99.90;;;;;;5052605;28;20455;-67
2024/02/14 10:59:20;;;;;;;17.60;16.57;;;13.20;99.90;;;;;;5051651;28;20466;-67
2024/02/14 11:01:48;;;;;;;16.40;15.40;;;13.60;99.90;;;;;;5050559;28;20458;-67
2024/02/14 11:04:15;;;;;;;9.93;9.20;;;13.50;99.90;;;;;;5050990;28;20506;-67
2024/02/14 11:06:46;;;;;;;10.17;9.30;;;13.60;99.90;;;;;;5052183;28;20462;-67
2024/02/14 11:09:15;;;;;;;8.27;7.33;;;13.80;99.90;;;;;;5052766;28;20534;-67
2024/02/14 11:11:43;;;;;;;5.97;5.37;;;14.00;99.90;;;;;;5051905;28;20824;-66
2024/02/14 11:14:15;;;;;;;11.70;5.20;;;14.10;99.90;;;;;;5051830;28;20894;-67
2024/02/14 11:16:42;;;;;;;5.20;3.30;;;14.20;99.90;;;;;;5051968;28;20455;-67
2024/02/14 11:19:10;;;;;;;7.15;3.95;;;14.40;99.90;;;;;;5051448;28;20448;-69
2024/02/14 11:21:38;;;;;;;6.63;3.50;;;14.60;99.90;;;;;;5051648;28;20196;-68
2024/02/14 11:24:08;;;;;;;5.22;3.22;;;14.80;99.90;;;;;;5049255;28;20451;-68
2024/02/14 11:26:40;;;;;;;8.73;3.10;;;14.70;99.90;;;;;;5051891;28;20204;-69
2024/02/14 11:29:07;;;;;;;9.03;2.50;;;14.90;99.90;;;;;;5052402;28;20839;-69
2024/02/14 11:31:37;;;;;;;8.67;2.00;;;15.10;99.90;;;;;;5051743;28;20838;-69
2024/02/14 11:34:05;;;;;;;6.80;2.00;;;15.40;99.90;;;;;;5044046;28;20470;-69
2024/02/14 11:36:34;;;;;;;4.70;1.40;;;15.20;99.90;;;;;;5050975;28;20505;-69
2024/02/14 11:39:04;;;;;;;7.73;1.80;;;15.10;99.90;;;;;;5045877;28;20965;-68
2024/02/14 11:41:33;;;;;;;4.90;2.40;;;14.80;99.90;;;;;;5049142;28;20501;-68
2024/02/14 11:44:03;;;;;;;7.37;2.30;;;14.60;99.90;;;;;;5051073;28;20478;-67
2024/02/14 11:46:31;;;;;;;5.93;2.60;;;14.40;99.90;;;;;;5043723;28;20478;-66
2024/02/14 11:49:00;;;;;;;6.37;3.00;;;14.10;99.90;;;;;;5043001;28;20454;-66
2024/02/14 11:51:28;;;;;;;6.67;3.57;;;13.90;99.90;;;;;;5051592;28;20935;-67
2024/02/14 11:53:55;;;;;;;8.93;4.47;;;13.80;99.90;;;;;;5051533;28;20478;-67
2024/02/14 11:56:22;;;;;;;7.40;3.80;;;13.70;99.90;;;;;;5052502;28;20451;-67
2024/02/14 11:58:50;;;;;;;6.67;3.40;;;13.70;99.90;;;;;;5051403;28;20467;-66
2024/02/14 12:01:18;;;;;;;5.47;3.20;;;13.80;99.90;;;;;;5051333;28;20452;-67
2024/02/14 12:03:46;;;;;;;6.77;4.13;;;13.80;99.90;;;;;;5051298;28;20474;-67
2024/02/14 12:06:15;;;;;;;5.00;3.67;;;13.80;99.90;;;;;;5050672;28;20759;-67
2024/02/14 12:08:42;;;;;;;11.47;5.00;;;13.80;99.90;;;;;;5051643;28;20451;-67
2024/02/14 12:11:10;;;;;;;5.20;4.70;;;13.70;99.90;;;;;;5053913;28;20845;-67
2024/02/14 12:13:43;;;;;;;5.13;4.63;;;13.70;99.90;;;;;;5054138;28;20832;-71
2024/02/14 12:16:11;;;;;;;7.83;7.27;;;13.70;99.90;;;;;;5048812;28;20526;-67
2024/02/14 12:18:39;;;;;;;20.33;19.23;;;13.50;99.90;;;;;;5043776;28;20463;-67
2024/02/14 12:21:08;;;;;;;63.30;60.90;;;13.50;99.90;;;;;;5052346;28;20454;-67
2024/02/14 12:23:36;;;;;;;146.57;141.63;;;13.30;99.90;;;;;;5054320;28;20880;-67
2024/02/14 12:26:04;;;;;;;174.53;168.50;;;13.20;99.90;;;;;;5050337;28;20466;-67
2024/02/14 12:28:32;;;;;;;190.50;184.13;;;13.20;99.90;;;;;;5047082;28;20453;-67
2024/02/14 12:30:59;;;;;;;178.63;172.80;;;13.10;99.90;;;;;;5051001;28;20454;-67